sensor_id;sensor_type;location;lat;lon;timestamp;temperature;humidity
7232;DHT22;3657;49.630;11.018;2023-07-29T00:00:53;19.40;99.90
7232;DHT22;3657;49.630;11.018;2023-07-29T00:03:21;19.30;99.90
7232;DHT22;3657;49.630;11.018;2023-07-29T00:05:48;19.30;99.90
7232;DHT22;3657;49.630;11.018;2023-07-29T00:08:14;19.20;99.90
7232;DHT22;3657;49.630;11.018;2023-07-29T00:10:41;19.20;99.90
7232;DHT22;3657;49.630;11.018;2023-07-29T00:13:08;19.20;99.90
7232;DHT22;3657;49.630;11.018;2023-07-29T00:15:36;19.20;99.90
7232;DHT22;3657;49.630;11.018;2023-07-29T00:18:02;19.20;99.90
7232;DHT22;3657;49.630;11.018;2023-07-29T00:20:29;19.20;99.90
7232;DHT22;3657;49.630;11.018;2023-07-29T00:22:56;19.20;99.90
7232;DHT22;3657;49.630;11.018;2023-07-29T00:25:24;19.10;99.90
7232;DHT22;3657;49.630;11.018;2023-07-29T00:27:50;19.10;99.90
7232;DHT22;3657;49.630;11.018;2023-07-29T00:30:17;19.00;99.90
7232;DHT22;3657;49.630;11.018;2023-07-29T00:32:45;18.90;99.90
7232;DHT22;3657;49.630;11.018;2023-07-29T00:35:12;18.90;99.90
7232;DHT22;3657;49.630;11.018;2023-07-29T00:37:38;19.00;99.90
7232;DHT22;3657;49.630;11.018;2023-07-29T00:40:13;19.00;99.90
7232;DHT22;3657;49.630;11.018;2023-07-29T00:42:40;19.10;99.90
7232;DHT22;3657;49.630;11.018;2023-07-29T00:45:08;19.10;99.90
7232;DHT22;3657;49.630;11.018;2023-07-29T00:47:35;19.20;99.90
7232;DHT22;3657;49.630;11.018;2023-07-29T00:50:04;19.20;99.90
7232;DHT22;3657;49.630;11.018;2023-07-29T00:52:31;19.20;99.90
7232;DHT22;3657;49.630;11.018;2023-07-29T00:54:58;19.10;99.90
7232;DHT22;3657;49.630;11.018;2023-07-29T00:57:25;19.00;99.90
7232;DHT22;3657;49.630;11.018;2023-07-29T00:59:52;19.00;99.90
7232;DHT22;3657;49.630;11.018;2023-07-29T01:02:18;18.90;99.90
7232;DHT22;3657;49.630;11.018;2023-07-29T01:04:45;18.90;99.90
7232;DHT22;3657;49.630;11.018;2023-07-29T01:07:21;19.00;99.90
7232;DHT22;3657;49.630;11.018;2023-07-29T01:09:55;18.80;99.90
7232;DHT22;3657;49.630;11.018;2023-07-29T01:12:28;18.90;99.90
7232;DHT22;3657;49.630;11.018;2023-07-29T01:15:01;18.80;99.90
7232;DHT22;3657;49.630;11.018;2023-07-29T01:17:33;18.90;99.90
7232;DHT22;3657;49.630;11.018;2023-07-29T01:20:06;18.80;99.90
7232;DHT22;3657;49.630;11.018;2023-07-29T01:22:36;18.80;99.90
7232;DHT22;3657;49.630;11.018;2023-07-29T01:25:07;18.80;99.90
7232;DHT22;3657;49.630;11.018;2023-07-29T01:27:33;18.70;99.90
7232;DHT22;3657;49.630;11.018;2023-07-29T01:30:01;18.70;99.90
7232;DHT22;3657;49.630;11.018;2023-07-29T01:32:36;18.70;99.90
7232;DHT22;3657;49.630;11.018;2023-07-29T01:35:13;18.60;99.90
7232;DHT22;3657;49.630;11.018;2023-07-29T01:37:41;18.60;99.90
7232;DHT22;3657;49.630;11.018;2023-07-29T01:40:11;18.50;99.90
7232;DHT22;3657;49.630;11.018;2023-07-29T01:42:38;18.60;99.90
7232;DHT22;3657;49.630;11.018;2023-07-29T01:45:05;18.60;99.90
7232;DHT22;3657;49.630;11.018;2023-07-29T01:47:32;18.50;99.90
7232;DHT22;3657;49.630;11.018;2023-07-29T01:49:59;18.60;99.90
7232;DHT22;3657;49.630;11.018;2023-07-29T01:52:25;18.50;99.90
7232;DHT22;3657;49.630;11.018;2023-07-29T01:54:52;18.50;99.90
7232;DHT22;3657;49.630;11.018;2023-07-29T01:57:20;18.50;99.90
7232;DHT22;3657;49.630;11.018;2023-07-29T01:59:47;18.50;99.90
7232;DHT22;3657;49.630;11.018;2023-07-29T02:02:13;18.60;99.90
7232;DHT22;3657;49.630;11.018;2023-07-29T02:04:40;18.50;99.90
7232;DHT22;3657;49.630;11.018;2023-07-29T02:07:07;18.50;99.90
7232;DHT22;3657;49.630;11.018;2023-07-29T02:09:33;18.50;99.90
7232;DHT22;3657;49.630;11.018;2023-07-29T02:12:00;18.50;99.90
7232;DHT22;3657;49.630;11.018;2023-07-29T02:14:28;18.40;99.90
7232;DHT22;3657;49.630;11.018;2023-07-29T02:16:55;18.50;99.90
7232;DHT22;3657;49.630;11.018;2023-07-29T02:19:22;18.30;99.90
7232;DHT22;3657;49.630;11.018;2023-07-29T02:21:48;18.30;99.90
7232;DHT22;3657;49.630;11.018;2023-07-29T02:24:15;18.10;99.90
7232;DHT22;3657;49.630;11.018;2023-07-29T02:26:42;18.10;99.90
7232;DHT22;3657;49.630;11.018;2023-07-29T02:29:08;18.20;99.90
7232;DHT22;3657;49.630;11.018;2023-07-29T02:31:36;18.10;99.90
7232;DHT22;3657;49.630;11.018;2023-07-29T02:34:03;18.10;99.90
7232;DHT22;3657;49.630;11.018;2023-07-29T02:36:30;18.10;99.90
7232;DHT22;3657;49.630;11.018;2023-07-29T02:38:57;18.10;99.90
7232;DHT22;3657;49.630;11.018;2023-07-29T02:41:23;18.10;99.90
7232;DHT22;3657;49.630;11.018;2023-07-29T02:43:50;18.20;99.90
7232;DHT22;3657;49.630;11.018;2023-07-29T02:46:17;18.20;99.90
7232;DHT22;3657;49.630;11.018;2023-07-29T02:48:45;18.20;99.90
7232;DHT22;3657;49.630;11.018;2023-07-29T02:51:12;18.10;99.90
7232;DHT22;3657;49.630;11.018;2023-07-29T02:53:39;18.20;99.90
7232;DHT22;3657;49.630;11.018;2023-07-29T02:56:05;18.30;99.90
7232;DHT22;3657;49.630;11.018;2023-07-29T02:58:34;18.30;99.90
7232;DHT22;3657;49.630;11.018;2023-07-29T03:01:01;18.30;99.90
7232;DHT22;3657;49.630;11.018;2023-07-29T03:03:28;18.30;99.90
7232;DHT22;3657;49.630;11.018;2023-07-29T03:05:59;18.20;99.90
7232;DHT22;3657;49.630;11.018;2023-07-29T03:08:26;18.10;99.90
7232;DHT22;3657;49.630;11.018;2023-07-29T03:10:53;18.00;99.90
7232;DHT22;3657;49.630;11.018;2023-07-29T03:13:20;18.10;99.90
7232;DHT22;3657;49.630;11.018;2023-07-29T03:15:46;18.10;99.90
7232;DHT22;3657;49.630;11.018;2023-07-29T03:18:14;18.20;99.90
7232;DHT22;3657;49.630;11.018;2023-07-29T03:20:41;18.30;99.90
7232;DHT22;3657;49.630;11.018;2023-07-29T03:23:09;18.30;99.90
7232;DHT22;3657;49.630;11.018;2023-07-29T03:25:36;18.40;99.90
7232;DHT22;3657;49.630;11.018;2023-07-29T03:28:02;18.40;99.90
7232;DHT22;3657;49.630;11.018;2023-07-29T03:30:29;18.40;99.90
7232;DHT22;3657;49.630;11.018;2023-07-29T03:32:56;18.50;99.90
7232;DHT22;3657;49.630;11.018;2023-07-29T03:35:22;18.40;99.90
7232;DHT22;3657;49.630;11.018;2023-07-29T03:37:49;18.40;99.90
7232;DHT22;3657;49.630;11.018;2023-07-29T03:40:17;18.20;99.90
7232;DHT22;3657;49.630;11.018;2023-07-29T03:42:44;17.90;99.90
7232;DHT22;3657;49.630;11.018;2023-07-29T03:45:11;17.80;99.90
7232;DHT22;3657;49.630;11.018;2023-07-29T03:47:37;17.70;99.90
7232;DHT22;3657;49.630;11.018;2023-07-29T03:50:05;17.80;99.90
7232;DHT22;3657;49.630;11.018;2023-07-29T03:52:31;17.80;99.90
7232;DHT22;3657;49.630;11.018;2023-07-29T03:54:58;17.80;99.90
7232;DHT22;3657;49.630;11.018;2023-07-29T03:57:26;17.80;99.90
7232;DHT22;3657;49.630;11.018;2023-07-29T03:59:54;17.80;99.90
7232;DHT22;3657;49.630;11.018;2023-07-29T04:02:21;17.80;99.90
7232;DHT22;3657;49.630;11.018;2023-07-29T04:04:47;17.80;99.90
7232;DHT22;3657;49.630;11.018;2023-07-29T04:07:14;17.80;99.90
7232;DHT22;3657;49.630;11.018;2023-07-29T04:09:41;17.70;99.90
7232;DHT22;3657;49.630;11.018;2023-07-29T04:12:08;17.80;99.90
7232;DHT22;3657;49.630;11.018;2023-07-29T04:14:36;17.80;99.90
7232;DHT22;3657;49.630;11.018;2023-07-29T04:17:03;17.70;99.90
7232;DHT22;3657;49.630;11.018;2023-07-29T04:19:30;17.70;99.90
7232;DHT22;3657;49.630;11.018;2023-07-29T04:21:57;17.60;99.90
7232;DHT22;3657;49.630;11.018;2023-07-29T04:24:23;17.60;99.90
7232;DHT22;3657;49.630;11.018;2023-07-29T04:26:50;17.70;99.90
7232;DHT22;3657;49.630;11.018;2023-07-29T04:29:17;17.80;99.90
7232;DHT22;3657;49.630;11.018;2023-07-29T04:31:45;17.80;99.90
7232;DHT22;3657;49.630;11.018;2023-07-29T04:34:11;17.90;99.90
7232;DHT22;3657;49.630;11.018;2023-07-29T04:36:38;17.90;99.90
7232;DHT22;3657;49.630;11.018;2023-07-29T04:39:06;17.90;99.90
7232;DHT22;3657;49.630;11.018;2023-07-29T04:41:33;18.00;99.90
7232;DHT22;3657;49.630;11.018;2023-07-29T04:43:59;18.10;99.90
7232;DHT22;3657;49.630;11.018;2023-07-29T04:46:26;18.20;99.90
7232;DHT22;3657;49.630;11.018;2023-07-29T04:48:54;18.20;99.90
7232;DHT22;3657;49.630;11.018;2023-07-29T04:51:21;18.20;99.90
7232;DHT22;3657;49.630;11.018;2023-07-29T04:53:48;18.20;99.90
7232;DHT22;3657;49.630;11.018;2023-07-29T04:56:14;18.20;99.90
7232;DHT22;3657;49.630;11.018;2023-07-29T04:58:41;18.10;99.90
7232;DHT22;3657;49.630;11.018;2023-07-29T05:01:08;18.20;99.90
7232;DHT22;3657;49.630;11.018;2023-07-29T05:03:35;18.20;99.90
7232;DHT22;3657;49.630;11.018;2023-07-29T05:06:03;18.30;99.90
7232;DHT22;3657;49.630;11.018;2023-07-29T05:08:30;18.30;99.90
7232;DHT22;3657;49.630;11.018;2023-07-29T05:10:57;18.40;99.90
7232;DHT22;3657;49.630;11.018;2023-07-29T05:13:23;18.40;99.90
7232;DHT22;3657;49.630;11.018;2023-07-29T05:15:50;18.30;99.90
7232;DHT22;3657;49.630;11.018;2023-07-29T05:18:17;18.20;99.90
7232;DHT22;3657;49.630;11.018;2023-07-29T05:20:44;18.20;99.90
7232;DHT22;3657;49.630;11.018;2023-07-29T05:23:12;18.20;99.90
7232;DHT22;3657;49.630;11.018;2023-07-29T05:25:38;18.20;99.90
7232;DHT22;3657;49.630;11.018;2023-07-29T05:28:05;18.20;99.90
7232;DHT22;3657;49.630;11.018;2023-07-29T05:30:32;18.20;99.90
7232;DHT22;3657;49.630;11.018;2023-07-29T05:33:03;18.20;99.90
7232;DHT22;3657;49.630;11.018;2023-07-29T05:35:29;18.30;99.90
7232;DHT22;3657;49.630;11.018;2023-07-29T05:37:56;18.30;99.90
7232;DHT22;3657;49.630;11.018;2023-07-29T05:40:24;18.30;99.90
7232;DHT22;3657;49.630;11.018;2023-07-29T05:42:51;18.30;99.90
7232;DHT22;3657;49.630;11.018;2023-07-29T05:45:17;18.20;99.90
7232;DHT22;3657;49.630;11.018;2023-07-29T05:47:44;18.20;99.90
7232;DHT22;3657;49.630;11.018;2023-07-29T05:50:11;18.20;99.90
7232;DHT22;3657;49.630;11.018;2023-07-29T05:52:37;18.20;99.90
7232;DHT22;3657;49.630;11.018;2023-07-29T05:55:05;18.30;99.90
7232;DHT22;3657;49.630;11.018;2023-07-29T05:57:33;18.30;99.90
7232;DHT22;3657;49.630;11.018;2023-07-29T05:59:59;18.40;99.90
7232;DHT22;3657;49.630;11.018;2023-07-29T06:02:26;18.50;99.90
7232;DHT22;3657;49.630;11.018;2023-07-29T06:04:53;18.50;99.90
7232;DHT22;3657;49.630;11.018;2023-07-29T06:07:19;18.50;99.90
7232;DHT22;3657;49.630;11.018;2023-07-29T06:09:46;18.40;99.90
7232;DHT22;3657;49.630;11.018;2023-07-29T06:12:13;18.50;99.90
7232;DHT22;3657;49.630;11.018;2023-07-29T06:14:41;18.40;99.90
7232;DHT22;3657;49.630;11.018;2023-07-29T06:17:08;18.30;99.90
7232;DHT22;3657;49.630;11.018;2023-07-29T06:19:36;18.30;99.90
7232;DHT22;3657;49.630;11.018;2023-07-29T06:22:03;18.30;99.90
7232;DHT22;3657;49.630;11.018;2023-07-29T06:24:31;18.30;99.90
7232;DHT22;3657;49.630;11.018;2023-07-29T06:26:58;18.30;99.90
7232;DHT22;3657;49.630;11.018;2023-07-29T06:29:24;18.20;99.90
7232;DHT22;3657;49.630;11.018;2023-07-29T06:31:52;18.30;99.90
7232;DHT22;3657;49.630;11.018;2023-07-29T06:34:20;18.20;99.90
7232;DHT22;3657;49.630;11.018;2023-07-29T06:36:46;18.30;99.90
7232;DHT22;3657;49.630;11.018;2023-07-29T06:39:13;18.20;99.90
7232;DHT22;3657;49.630;11.018;2023-07-29T06:41:39;18.30;99.90
7232;DHT22;3657;49.630;11.018;2023-07-29T06:44:06;18.30;99.90
7232;DHT22;3657;49.630;11.018;2023-07-29T06:46:33;18.40;99.90
7232;DHT22;3657;49.630;11.018;2023-07-29T06:49:01;18.40;99.90
7232;DHT22;3657;49.630;11.018;2023-07-29T06:51:27;18.40;99.90
7232;DHT22;3657;49.630;11.018;2023-07-29T06:53:58;18.40;99.90
7232;DHT22;3657;49.630;11.018;2023-07-29T06:56:24;18.50;99.90
7232;DHT22;3657;49.630;11.018;2023-07-29T06:58:51;18.50;99.90
7232;DHT22;3657;49.630;11.018;2023-07-29T07:01:18;18.40;99.90
7232;DHT22;3657;49.630;11.018;2023-07-29T07:03:44;18.40;99.90
7232;DHT22;3657;49.630;11.018;2023-07-29T07:06:12;18.30;99.90
7232;DHT22;3657;49.630;11.018;2023-07-29T07:08:39;18.30;99.90
7232;DHT22;3657;49.630;11.018;2023-07-29T07:11:07;18.40;99.90
7232;DHT22;3657;49.630;11.018;2023-07-29T07:13:33;18.30;99.90
7232;DHT22;3657;49.630;11.018;2023-07-29T07:16:00;18.40;99.90
7232;DHT22;3657;49.630;11.018;2023-07-29T07:18:27;18.40;99.90
7232;DHT22;3657;49.630;11.018;2023-07-29T07:20:54;18.40;99.90
7232;DHT22;3657;49.630;11.018;2023-07-29T07:23:22;18.50;99.90
7232;DHT22;3657;49.630;11.018;2023-07-29T07:25:48;18.40;99.90
7232;DHT22;3657;49.630;11.018;2023-07-29T07:28:15;18.40;99.90
7232;DHT22;3657;49.630;11.018;2023-07-29T07:30:41;18.50;99.90
7232;DHT22;3657;49.630;11.018;2023-07-29T07:33:08;18.50;99.90
7232;DHT22;3657;49.630;11.018;2023-07-29T07:35:35;18.60;99.90
7232;DHT22;3657;49.630;11.018;2023-07-29T07:38:02;18.60;99.90
7232;DHT22;3657;49.630;11.018;2023-07-29T07:40:30;18.60;99.90
7232;DHT22;3657;49.630;11.018;2023-07-29T07:42:57;18.70;99.90
7232;DHT22;3657;49.630;11.018;2023-07-29T07:45:24;18.70;99.90
7232;DHT22;3657;49.630;11.018;2023-07-29T07:47:51;18.80;99.90
7232;DHT22;3657;49.630;11.018;2023-07-29T07:50:18;18.80;99.90
7232;DHT22;3657;49.630;11.018;2023-07-29T07:52:45;18.80;99.90
7232;DHT22;3657;49.630;11.018;2023-07-29T07:55:11;18.80;99.90
7232;DHT22;3657;49.630;11.018;2023-07-29T07:57:39;18.80;99.90
7232;DHT22;3657;49.630;11.018;2023-07-29T08:00:07;18.70;99.90
7232;DHT22;3657;49.630;11.018;2023-07-29T08:02:34;18.70;99.90
7232;DHT22;3657;49.630;11.018;2023-07-29T08:05:01;18.60;99.90
7232;DHT22;3657;49.630;11.018;2023-07-29T08:07:28;18.70;99.90
7232;DHT22;3657;49.630;11.018;2023-07-29T08:09:54;18.50;99.90
7232;DHT22;3657;49.630;11.018;2023-07-29T08:12:21;18.60;99.90
7232;DHT22;3657;49.630;11.018;2023-07-29T08:14:49;18.60;99.90
7232;DHT22;3657;49.630;11.018;2023-07-29T08:17:16;18.60;99.90
7232;DHT22;3657;49.630;11.018;2023-07-29T08:19:43;18.60;99.90
7232;DHT22;3657;49.630;11.018;2023-07-29T08:22:09;18.60;99.90
7232;DHT22;3657;49.630;11.018;2023-07-29T08:24:36;18.60;99.90
7232;DHT22;3657;49.630;11.018;2023-07-29T08:27:03;18.70;99.90
7232;DHT22;3657;49.630;11.018;2023-07-29T08:29:29;18.80;99.90
7232;DHT22;3657;49.630;11.018;2023-07-29T08:31:57;18.80;99.90
7232;DHT22;3657;49.630;11.018;2023-07-29T08:34:24;18.90;99.90
7232;DHT22;3657;49.630;11.018;2023-07-29T08:36:51;18.90;99.90
7232;DHT22;3657;49.630;11.018;2023-07-29T08:39:17;18.90;99.90
7232;DHT22;3657;49.630;11.018;2023-07-29T08:41:49;18.90;99.90
7232;DHT22;3657;49.630;11.018;2023-07-29T08:44:21;19.00;99.90
7232;DHT22;3657;49.630;11.018;2023-07-29T08:46:48;18.90;99.90
7232;DHT22;3657;49.630;11.018;2023-07-29T08:49:18;19.00;99.90
7232;DHT22;3657;49.630;11.018;2023-07-29T08:51:46;19.10;99.90
7232;DHT22;3657;49.630;11.018;2023-07-29T08:54:14;19.10;99.90
7232;DHT22;3657;49.630;11.018;2023-07-29T08:56:42;19.10;99.90
7232;DHT22;3657;49.630;11.018;2023-07-29T08:59:10;19.20;99.90
7232;DHT22;3657;49.630;11.018;2023-07-29T09:01:37;19.20;99.90
7232;DHT22;3657;49.630;11.018;2023-07-29T09:04:04;19.20;99.90
7232;DHT22;3657;49.630;11.018;2023-07-29T09:06:32;19.20;99.90
7232;DHT22;3657;49.630;11.018;2023-07-29T09:09:00;19.20;99.90
7232;DHT22;3657;49.630;11.018;2023-07-29T09:11:28;19.40;99.90
7232;DHT22;3657;49.630;11.018;2023-07-29T09:13:55;19.30;99.90
7232;DHT22;3657;49.630;11.018;2023-07-29T09:16:22;19.40;99.90
7232;DHT22;3657;49.630;11.018;2023-07-29T09:18:49;19.50;99.90
7232;DHT22;3657;49.630;11.018;2023-07-29T09:21:17;19.50;99.90
7232;DHT22;3657;49.630;11.018;2023-07-29T09:23:45;19.50;99.90
7232;DHT22;3657;49.630;11.018;2023-07-29T09:26:12;19.50;99.90
7232;DHT22;3657;49.630;11.018;2023-07-29T09:28:39;19.50;99.90
7232;DHT22;3657;49.630;11.018;2023-07-29T09:31:06;19.50;99.90
7232;DHT22;3657;49.630;11.018;2023-07-29T09:33:34;19.40;99.90
7232;DHT22;3657;49.630;11.018;2023-07-29T09:36:03;19.40;99.90
7232;DHT22;3657;49.630;11.018;2023-07-29T09:38:29;19.40;99.90
7232;DHT22;3657;49.630;11.018;2023-07-29T09:40:58;19.40;99.90
7232;DHT22;3657;49.630;11.018;2023-07-29T09:43:29;19.40;99.90
7232;DHT22;3657;49.630;11.018;2023-07-29T09:45:59;19.50;99.90
7232;DHT22;3657;49.630;11.018;2023-07-29T09:48:26;19.70;99.90
7232;DHT22;3657;49.630;11.018;2023-07-29T09:50:54;20.00;99.90
7232;DHT22;3657;49.630;11.018;2023-07-29T09:53:21;20.40;99.90
7232;DHT22;3657;49.630;11.018;2023-07-29T09:55:48;20.80;99.90
7232;DHT22;3657;49.630;11.018;2023-07-29T09:58:22;21.10;99.90
7232;DHT22;3657;49.630;11.018;2023-07-29T10:00:52;21.30;99.90
7232;DHT22;3657;49.630;11.018;2023-07-29T10:03:20;21.60;99.90
7232;DHT22;3657;49.630;11.018;2023-07-29T10:05:47;21.70;99.90
7232;DHT22;3657;49.630;11.018;2023-07-29T10:08:14;22.20;99.90
7232;DHT22;3657;49.630;11.018;2023-07-29T10:10:42;22.70;99.90
7232;DHT22;3657;49.630;11.018;2023-07-29T10:13:09;23.10;99.90
7232;DHT22;3657;49.630;11.018;2023-07-29T10:15:38;23.70;99.90
7232;DHT22;3657;49.630;11.018;2023-07-29T10:18:04;23.90;99.90
7232;DHT22;3657;49.630;11.018;2023-07-29T10:20:32;23.60;99.90
7232;DHT22;3657;49.630;11.018;2023-07-29T10:23:00;23.30;99.90
7232;DHT22;3657;49.630;11.018;2023-07-29T10:25:37;22.70;99.90
7232;DHT22;3657;49.630;11.018;2023-07-29T10:28:06;22.70;99.90
7232;DHT22;3657;49.630;11.018;2023-07-29T10:30:33;22.80;99.90
7232;DHT22;3657;49.630;11.018;2023-07-29T10:33:02;23.10;99.90
7232;DHT22;3657;49.630;11.018;2023-07-29T10:35:30;23.30;99.90
7232;DHT22;3657;49.630;11.018;2023-07-29T10:37:59;23.10;99.90
7232;DHT22;3657;49.630;11.018;2023-07-29T10:40:26;23.00;99.90
7232;DHT22;3657;49.630;11.018;2023-07-29T10:43:11;22.90;99.90
7232;DHT22;3657;49.630;11.018;2023-07-29T10:45:38;22.80;99.90
7232;DHT22;3657;49.630;11.018;2023-07-29T10:48:10;22.80;99.90
7232;DHT22;3657;49.630;11.018;2023-07-29T10:50:37;23.20;99.90
7232;DHT22;3657;49.630;11.018;2023-07-29T10:53:04;23.20;99.90
7232;DHT22;3657;49.630;11.018;2023-07-29T10:55:32;23.30;99.90
7232;DHT22;3657;49.630;11.018;2023-07-29T10:58:16;23.70;99.90
7232;DHT22;3657;49.630;11.018;2023-07-29T11:00:43;24.10;99.90
7232;DHT22;3657;49.630;11.018;2023-07-29T11:03:13;24.20;99.90
7232;DHT22;3657;49.630;11.018;2023-07-29T11:05:48;24.10;99.90
7232;DHT22;3657;49.630;11.018;2023-07-29T11:08:20;24.10;99.90
7232;DHT22;3657;49.630;11.018;2023-07-29T11:11:05;24.00;99.90
7232;DHT22;3657;49.630;11.018;2023-07-29T11:13:33;23.80;99.90
7232;DHT22;3657;49.630;11.018;2023-07-29T11:16:00;23.60;99.90
7232;DHT22;3657;49.630;11.018;2023-07-29T11:18:29;23.60;99.90
7232;DHT22;3657;49.630;11.018;2023-07-29T11:20:57;23.50;99.90
7232;DHT22;3657;49.630;11.018;2023-07-29T11:23:29;23.30;99.90
7232;DHT22;3657;49.630;11.018;2023-07-29T11:25:56;23.20;99.90
7232;DHT22;3657;49.630;11.018;2023-07-29T11:28:24;23.20;99.90
7232;DHT22;3657;49.630;11.018;2023-07-29T11:30:51;23.20;99.90
7232;DHT22;3657;49.630;11.018;2023-07-29T11:33:18;23.20;99.90
7232;DHT22;3657;49.630;11.018;2023-07-29T11:35:47;23.30;99.90
7232;DHT22;3657;49.630;11.018;2023-07-29T11:38:17;23.20;99.90
7232;DHT22;3657;49.630;11.018;2023-07-29T11:40:55;23.30;99.90
7232;DHT22;3657;49.630;11.018;2023-07-29T11:43:21;23.30;99.90
7232;DHT22;3657;49.630;11.018;2023-07-29T11:45:48;23.40;99.90
7232;DHT22;3657;49.630;11.018;2023-07-29T11:48:15;23.70;99.90
7232;DHT22;3657;49.630;11.018;2023-07-29T11:50:42;24.00;99.90
7232;DHT22;3657;49.630;11.018;2023-07-29T11:53:11;24.20;99.90
7232;DHT22;3657;49.630;11.018;2023-07-29T11:55:38;24.30;99.90
7232;DHT22;3657;49.630;11.018;2023-07-29T11:58:04;24.30;99.90
7232;DHT22;3657;49.630;11.018;2023-07-29T12:00:31;24.40;99.90
7232;DHT22;3657;49.630;11.018;2023-07-29T12:02:58;24.50;99.90
7232;DHT22;3657;49.630;11.018;2023-07-29T12:05:26;24.60;99.90
7232;DHT22;3657;49.630;11.018;2023-07-29T12:07:52;24.80;99.90
7232;DHT22;3657;49.630;11.018;2023-07-29T12:10:21;24.80;99.90
7232;DHT22;3657;49.630;11.018;2023-07-29T12:12:49;24.80;99.90
7232;DHT22;3657;49.630;11.018;2023-07-29T12:15:23;24.80;99.90
7232;DHT22;3657;49.630;11.018;2023-07-29T12:17:53;24.80;99.90
7232;DHT22;3657;49.630;11.018;2023-07-29T12:20:20;24.80;99.90
7232;DHT22;3657;49.630;11.018;2023-07-29T12:22:52;24.80;99.90
7232;DHT22;3657;49.630;11.018;2023-07-29T12:25:18;24.90;99.90
7232;DHT22;3657;49.630;11.018;2023-07-29T12:27:46;24.90;99.90
7232;DHT22;3657;49.630;11.018;2023-07-29T12:30:13;25.00;99.90
7232;DHT22;3657;49.630;11.018;2023-07-29T12:32:44;25.10;99.90
7232;DHT22;3657;49.630;11.018;2023-07-29T12:35:10;25.20;99.90
7232;DHT22;3657;49.630;11.018;2023-07-29T12:37:37;25.30;99.90
7232;DHT22;3657;49.630;11.018;2023-07-29T12:40:09;25.50;99.90
7232;DHT22;3657;49.630;11.018;2023-07-29T12:42:35;25.70;99.90
7232;DHT22;3657;49.630;11.018;2023-07-29T12:45:04;25.90;99.90
7232;DHT22;3657;49.630;11.018;2023-07-29T12:47:31;25.90;99.90
7232;DHT22;3657;49.630;11.018;2023-07-29T12:49:58;26.10;99.90
7232;DHT22;3657;49.630;11.018;2023-07-29T12:52:24;26.40;99.90
7232;DHT22;3657;49.630;11.018;2023-07-29T12:54:51;26.60;99.90
7232;DHT22;3657;49.630;11.018;2023-07-29T12:57:18;26.50;99.90
7232;DHT22;3657;49.630;11.018;2023-07-29T12:59:44;26.60;99.90
7232;DHT22;3657;49.630;11.018;2023-07-29T13:02:12;26.60;99.90
7232;DHT22;3657;49.630;11.018;2023-07-29T13:04:39;26.70;99.90
7232;DHT22;3657;49.630;11.018;2023-07-29T13:07:06;26.90;99.90
7232;DHT22;3657;49.630;11.018;2023-07-29T13:09:32;27.10;99.90
7232;DHT22;3657;49.630;11.018;2023-07-29T13:11:59;27.10;99.90
7232;DHT22;3657;49.630;11.018;2023-07-29T13:14:26;27.30;99.90
7232;DHT22;3657;49.630;11.018;2023-07-29T13:16:52;27.40;99.90
7232;DHT22;3657;49.630;11.018;2023-07-29T13:19:20;27.40;99.90
7232;DHT22;3657;49.630;11.018;2023-07-29T13:21:47;27.30;99.90
7232;DHT22;3657;49.630;11.018;2023-07-29T13:24:14;27.40;99.90
7232;DHT22;3657;49.630;11.018;2023-07-29T13:26:40;27.40;99.90
7232;DHT22;3657;49.630;11.018;2023-07-29T13:29:07;27.30;99.90
7232;DHT22;3657;49.630;11.018;2023-07-29T13:31:34;27.40;99.90
7232;DHT22;3657;49.630;11.018;2023-07-29T13:34:01;27.30;99.90
7232;DHT22;3657;49.630;11.018;2023-07-29T13:36:29;27.40;99.90
7232;DHT22;3657;49.630;11.018;2023-07-29T13:38:55;27.30;99.90
7232;DHT22;3657;49.630;11.018;2023-07-29T13:41:22;27.30;99.90
7232;DHT22;3657;49.630;11.018;2023-07-29T13:43:49;27.20;99.90
7232;DHT22;3657;49.630;11.018;2023-07-29T13:46:15;27.30;99.90
7232;DHT22;3657;49.630;11.018;2023-07-29T13:48:45;27.40;99.90
7232;DHT22;3657;49.630;11.018;2023-07-29T13:51:12;27.40;99.90
7232;DHT22;3657;49.630;11.018;2023-07-29T13:53:40;27.50;99.90
7232;DHT22;3657;49.630;11.018;2023-07-29T13:56:06;27.60;99.90
7232;DHT22;3657;49.630;11.018;2023-07-29T13:58:33;27.60;99.90
7232;DHT22;3657;49.630;11.018;2023-07-29T14:01:00;27.50;99.90
7232;DHT22;3657;49.630;11.018;2023-07-29T14:03:26;27.60;99.90
7232;DHT22;3657;49.630;11.018;2023-07-29T14:05:53;27.60;99.90
7232;DHT22;3657;49.630;11.018;2023-07-29T14:08:20;27.40;99.90
7232;DHT22;3657;49.630;11.018;2023-07-29T14:10:50;27.40;99.90
7232;DHT22;3657;49.630;11.018;2023-07-29T14:13:16;27.40;99.90
7232;DHT22;3657;49.630;11.018;2023-07-29T14:15:43;27.50;99.90
7232;DHT22;3657;49.630;11.018;2023-07-29T14:18:09;27.60;99.90
7232;DHT22;3657;49.630;11.018;2023-07-29T14:20:36;27.50;99.90
7232;DHT22;3657;49.630;11.018;2023-07-29T14:23:03;27.50;99.90
7232;DHT22;3657;49.630;11.018;2023-07-29T14:25:29;27.60;99.90
7232;DHT22;3657;49.630;11.018;2023-07-29T14:27:57;27.50;99.90
7232;DHT22;3657;49.630;11.018;2023-07-29T14:30:24;27.50;99.90
7232;DHT22;3657;49.630;11.018;2023-07-29T14:32:51;27.60;99.90
7232;DHT22;3657;49.630;11.018;2023-07-29T14:35:18;27.40;99.90
7232;DHT22;3657;49.630;11.018;2023-07-29T14:37:44;27.60;99.90
7232;DHT22;3657;49.630;11.018;2023-07-29T14:40:11;27.70;99.90
7232;DHT22;3657;49.630;11.018;2023-07-29T14:42:37;27.80;99.90
7232;DHT22;3657;49.630;11.018;2023-07-29T14:45:07;27.70;99.90
7232;DHT22;3657;49.630;11.018;2023-07-29T14:47:33;27.90;99.90
7232;DHT22;3657;49.630;11.018;2023-07-29T14:50:00;27.90;99.90
7232;DHT22;3657;49.630;11.018;2023-07-29T14:52:27;28.00;99.90
7232;DHT22;3657;49.630;11.018;2023-07-29T14:54:53;28.00;99.90
7232;DHT22;3657;49.630;11.018;2023-07-29T14:57:20;28.00;99.90
7232;DHT22;3657;49.630;11.018;2023-07-29T14:59:47;28.10;99.90
7232;DHT22;3657;49.630;11.018;2023-07-29T15:02:15;28.00;99.90
7232;DHT22;3657;49.630;11.018;2023-07-29T15:04:41;28.10;99.90
7232;DHT22;3657;49.630;11.018;2023-07-29T15:07:08;28.00;99.90
7232;DHT22;3657;49.630;11.018;2023-07-29T15:09:35;27.80;99.90
7232;DHT22;3657;49.630;11.018;2023-07-29T15:12:01;27.80;99.90
7232;DHT22;3657;49.630;11.018;2023-07-29T15:14:29;27.80;99.90
7232;DHT22;3657;49.630;11.018;2023-07-29T15:16:55;27.80;99.90
7232;DHT22;3657;49.630;11.018;2023-07-29T15:19:23;27.80;99.90
7232;DHT22;3657;49.630;11.018;2023-07-29T15:21:50;27.80;99.90
7232;DHT22;3657;49.630;11.018;2023-07-29T15:24:17;27.90;99.90
7232;DHT22;3657;49.630;11.018;2023-07-29T15:26:43;27.90;99.90
7232;DHT22;3657;49.630;11.018;2023-07-29T15:29:10;27.70;99.90
7232;DHT22;3657;49.630;11.018;2023-07-29T15:31:39;27.60;99.90
7232;DHT22;3657;49.630;11.018;2023-07-29T15:34:06;27.40;99.90
7232;DHT22;3657;49.630;11.018;2023-07-29T15:36:34;27.50;99.90
7232;DHT22;3657;49.630;11.018;2023-07-29T15:39:01;27.30;99.90
7232;DHT22;3657;49.630;11.018;2023-07-29T15:41:31;27.30;99.90
7232;DHT22;3657;49.630;11.018;2023-07-29T15:43:58;27.40;99.90
7232;DHT22;3657;49.630;11.018;2023-07-29T15:46:24;27.40;99.90